Terminal Aerodrome Forecast
Issued by NWS

Home | Current Version | Previous Version | Text Only | Print | Product List | Glossary On
Versions: 1 2 3 4 5 6 7 8 9 10 11 12 13 14 15 16 17 18 19 20 21 22 23 24 25 26 27 28 29 30 31 32 33 34 35 36 37 38 39 40 41 42 43 44 45 46 47
000
FTUS43 KLOT 242330
TAFGYY
TAF
KGYY 242330Z 2500/2524 25008KT P6SM FEW030 SCT250
     FM250500 24006KT P6SM VCSH SCT035 BKN150
     FM250700 23004KT P6SM VCTS SCT040CB BKN100
      TEMPO 2508/2512 3SM TSRA SCT010 BKN025CB
     FM251400 32007KT P6SM VCSH OVC025
     FM251900 01009KT P6SM BKN035
     FM252100 35010KT P6SM SCT150=

USA.gov is the U.S. government's official web portal to all federal, state and local government web resources and services.